• Join FlightAware (Why Join?)
  • Login
  • US Flag 
06:46AM EST


 

Airport Tracker/Info


-or-


 

Live Flight TrackerFlight Track Log ✈ N290CD ✈ 23-Jun-2013 ✈ KJQF - KILM

Flight Track Log - Related Links

Times and Time Zones

All times are in EDT time to prevent confusion due to time zone crossing. See the N290CD flight status page for this flight to view local times or setup timezone preferences in your user account.

Time Position Orientation Groundspeed Altitude Reporting Facility
EDT Latitude Longitude Course Direction KTS MPH feet Rate Location/Type
05:19PM 35.3661 -80.7025 129° Southeast 109 125 1,300  Level Atlanta Center
05:20PM 35.3511 -80.6800 129° Southeast 91 105 1,700 420 Climbing Atlanta Center
05:21PM 35.3278 -80.6658 154° Southeast 106 122 2,100 540 Climbing Atlanta Center
05:22PM 35.3000 -80.6414 144° Southeast 113 130 2,800 480 Climbing Atlanta Center
05:23PM 35.2844 -80.6117 123° Southeast 106 122 3,200 360 Climbing Atlanta Center
05:24PM 35.2686 -80.5717 116° Southeast 135 155 3,600 540 Climbing Atlanta Center
05:25PM 35.2594 -80.5389 109° East 105 121 4,300 600 Climbing Atlanta Center
05:26PM 35.2481 -80.5089 115° Southeast 90 104 4,900 420 Climbing Atlanta Center
05:27PM 35.2369 -80.4839 119° Southeast 98 113 5,200 300 Climbing Atlanta Center
05:28PM 35.2233 -80.4439 113° Southeast 122 140 5,500 240 Climbing Atlanta Center
05:29PM 35.2075 -80.3986 113° Southeast 134 154 5,700 240 Climbing Atlanta Center
05:30PM 35.1958 -80.3611 111° Southeast 133 153 6,000 240 Climbing Atlanta Center
05:31PM 35.1778 -80.3186 117° Southeast 131 151 6,300 240 Climbing Atlanta Center
05:32PM 35.1619 -80.2764 115° Southeast 130 150 6,600 240 Climbing Atlanta Center
05:34PM 35.1528 -80.2355 105° East  Level FlightAware Approximate
05:41PM 35.0885 -79.9691 115° Southeast  Level FlightAware Approximate
05:42PM 35.0752 -79.9336 115° Southeast  Level FlightAware Approximate
05:43PM 35.0619 -79.8980 115° Southeast  Level FlightAware Approximate
05:44PM 35.0485 -79.8625 115° Southeast  Level FlightAware Approximate
05:45PM 35.0352 -79.8270 115° Southeast  Level FlightAware Approximate
05:46PM 35.0219 -79.7915 115° Southeast  Level FlightAware Approximate
05:47PM 35.0085 -79.7560 115° Southeast  Level FlightAware Approximate
05:48PM 34.9952 -79.7205 115° Southeast  Level FlightAware Approximate
05:49PM 34.9818 -79.6850 115° Southeast  Level FlightAware Approximate
05:50PM 34.9684 -79.6496 115° Southeast  Level FlightAware Approximate
05:51PM 34.9550 -79.6141 115° Southeast  Level FlightAware Approximate
05:52PM 34.9416 -79.5787 115° Southeast  Level FlightAware Approximate
05:53PM 34.9282 -79.5433 115° Southeast  Level FlightAware Approximate
05:54PM 34.9148 -79.5078 115° Southeast  Level FlightAware Approximate
05:55PM 34.9013 -79.4724 115° Southeast  Level FlightAware Approximate
05:56PM 34.8879 -79.4370 115° Southeast  Level FlightAware Approximate
05:57PM 34.8745 -79.4017 115° Southeast  Level FlightAware Approximate
05:58PM 34.8610 -79.3663 115° Southeast  Level FlightAware Approximate
05:59PM 34.8475 -79.3309 115° Southeast  Level FlightAware Approximate
06:00PM 34.8341 -79.2956 115° Southeast  Level FlightAware Approximate
06:01PM 34.8206 -79.2602 115° Southeast  Level FlightAware Approximate
06:02PM 34.8068 -79.2251 116° Southeast  Level FlightAware Approximate
06:03PM 34.7929 -79.1900 116° Southeast  Level FlightAware Approximate
06:04PM 34.7790 -79.1550 116° Southeast  Level FlightAware Approximate
06:05PM 34.7650 -79.1199 116° Southeast  Level FlightAware Approximate
06:06PM 34.7511 -79.0849 116° Southeast  Level FlightAware Approximate
06:07PM 34.7372 -79.0498 116° Southeast  Level FlightAware Approximate
06:08PM 34.7232 -79.0148 116° Southeast  Level FlightAware Approximate
06:09PM 34.7092 -78.9798 116° Southeast  Level FlightAware Approximate
06:10PM 34.6953 -78.9448 116° Southeast  Level FlightAware Approximate
06:11PM 34.6813 -78.9098 116° Southeast  Level FlightAware Approximate
06:12PM 34.6673 -78.8748 116° Southeast  Level FlightAware Approximate
06:13PM 34.6533 -78.8399 116° Southeast  Level FlightAware Approximate
06:14PM 34.6392 -78.8049 116° Southeast  Level FlightAware Approximate
06:15PM 34.6252 -78.7700 116° Southeast  Level FlightAware Approximate
06:16PM 34.6112 -78.7351 116° Southeast  Level FlightAware Approximate
06:17PM 34.5971 -78.7002 116° Southeast  Level FlightAware Approximate
06:18PM 34.5830 -78.6653 116° Southeast  Level FlightAware Approximate
06:19PM 34.5690 -78.6304 116° Southeast  Level FlightAware Approximate
06:20PM 34.5549 -78.5955 116° Southeast  Level FlightAware Approximate
06:21PM 34.5404 -78.5609 117° Southeast  Level FlightAware Approximate
06:22PM 34.5257 -78.5264 117° Southeast  Level FlightAware Approximate
06:23PM 34.5109 -78.4920 117° Southeast  Level FlightAware Approximate
06:24PM 34.4962 -78.4575 117° Southeast  Level FlightAware Approximate
06:25PM 34.4814 -78.4231 117° Southeast  Level FlightAware Approximate
06:26PM 34.4666 -78.3887 118° Southeast  Level FlightAware Approximate
06:27PM 34.4519 -78.3543 118° Southeast  Level FlightAware Approximate
06:28PM 34.4367 -78.3201 118° Southeast  Level FlightAware Approximate